createdAt,value
2019-03-23T00:01:12.597Z,94.00
2019-03-23T00:03:40.821Z,94.10
2019-03-23T00:06:09.051Z,94.10
2019-03-23T00:08:37.334Z,94.10
2019-03-23T00:11:05.602Z,94.00
2019-03-23T00:13:33.858Z,94.00
2019-03-23T00:16:02.101Z,94.30
2019-03-23T00:18:30.338Z,94.40
2019-03-23T00:20:58.582Z,94.60
2019-03-23T00:23:26.785Z,94.70
2019-03-23T00:25:55.150Z,94.80
2019-03-23T00:28:23.411Z,94.90
2019-03-23T00:30:51.589Z,94.80
2019-03-23T00:33:19.804Z,94.60
2019-03-23T00:35:48.013Z,94.20
2019-03-23T00:38:16.248Z,94.00
2019-03-23T00:40:44.495Z,94.30
2019-03-23T00:43:12.714Z,94.20
2019-03-23T00:45:40.940Z,94.30
2019-03-23T00:48:09.149Z,94.50
2019-03-23T00:50:37.385Z,95.00
2019-03-23T00:53:05.597Z,95.40
2019-03-23T00:55:33.813Z,95.50
2019-03-23T00:58:02.047Z,95.60
2019-03-23T01:00:30.283Z,96.00
2019-03-23T01:02:58.518Z,96.00
2019-03-23T01:05:29.595Z,96.20
2019-03-23T01:07:57.857Z,95.60
2019-03-23T01:10:26.089Z,95.40
2019-03-23T01:12:54.306Z,95.20
2019-03-23T01:15:22.551Z,95.40
2019-03-23T01:17:50.781Z,95.70
2019-03-23T01:20:19.037Z,96.10
2019-03-23T01:22:47.359Z,96.10
2019-03-23T01:25:15.595Z,96.50
2019-03-23T01:27:43.818Z,96.20
2019-03-23T01:30:13.649Z,96.20
2019-03-23T01:32:41.871Z,96.00
2019-03-23T01:35:12.014Z,96.00
2019-03-23T01:37:40.273Z,96.20
2019-03-23T01:40:08.549Z,96.30
2019-03-23T01:42:36.749Z,96.30
2019-03-23T01:45:05.746Z,96.40
2019-03-23T01:47:33.977Z,96.30
2019-03-23T01:50:02.194Z,96.40
2019-03-23T01:52:30.409Z,96.40
2019-03-23T01:54:58.655Z,96.40
2019-03-23T01:57:26.880Z,96.30
2019-03-23T01:59:55.130Z,96.50
2019-03-23T02:02:23.351Z,96.50
2019-03-23T02:04:52.469Z,96.70
2019-03-23T02:07:20.889Z,96.70
2019-03-23T02:09:49.112Z,96.80
2019-03-23T02:12:17.358Z,96.90
2019-03-23T02:14:45.562Z,96.80
2019-03-23T02:17:13.774Z,96.90
2019-03-23T02:19:42.011Z,96.90
2019-03-23T02:22:10.230Z,97.00
2019-03-23T02:24:38.486Z,97.00
2019-03-23T02:27:07.388Z,97.30
2019-03-23T02:29:35.581Z,97.40
2019-03-23T02:32:03.914Z,97.50
2019-03-23T02:34:32.135Z,97.70
2019-03-23T02:37:00.388Z,97.50
2019-03-23T02:39:28.618Z,97.80
2019-03-23T02:41:56.825Z,98.00
2019-03-23T02:44:25.054Z,98.00
2019-03-23T02:46:53.286Z,98.10
2019-03-23T02:49:21.599Z,98.00
2019-03-23T02:51:49.803Z,97.90
2019-03-23T02:54:18.037Z,98.00
2019-03-23T02:56:46.254Z,98.20
2019-03-23T02:59:14.483Z,98.20
2019-03-23T03:01:42.720Z,98.10
2019-03-23T03:04:10.936Z,98.50
2019-03-23T03:06:39.132Z,98.40
2019-03-23T03:09:07.368Z,98.70
2019-03-23T03:11:35.581Z,98.90
2019-03-23T03:14:04.912Z,99.00
2019-03-23T03:16:33.114Z,99.00
2019-03-23T03:19:01.360Z,99.10
2019-03-23T03:21:29.606Z,99.30
2019-03-23T03:23:57.828Z,99.50
2019-03-23T03:26:26.078Z,99.30
2019-03-23T03:28:54.333Z,99.10
2019-03-23T03:31:22.603Z,99.10
2019-03-23T03:33:50.862Z,99.30
2019-03-23T03:36:19.147Z,99.20
2019-03-23T03:38:47.365Z,99.40
2019-03-23T03:41:15.950Z,99.20
2019-03-23T03:43:44.223Z,99.10
2019-03-23T03:46:12.450Z,99.40
2019-03-23T03:48:40.741Z,99.20
2019-03-23T03:51:08.982Z,99.20
2019-03-23T03:53:52.493Z,99.60
2019-03-23T03:56:40.237Z,99.80
2019-03-23T03:59:08.975Z,99.80
2019-03-23T04:01:46.932Z,99.90
2019-03-23T04:04:29.163Z,99.90
2019-03-23T04:06:57.854Z,99.90
2019-03-23T04:09:26.349Z,99.90
2019-03-23T04:12:13.092Z,99.90
2019-03-23T04:15:02.058Z,99.90
2019-03-23T04:17:51.761Z,99.90
2019-03-23T04:20:44.371Z,99.90
2019-03-23T04:23:24.446Z,99.80
2019-03-23T04:26:05.599Z,99.80
2019-03-23T04:28:50.562Z,99.80
2019-03-23T04:31:40.980Z,99.70
2019-03-23T04:34:44.278Z,99.90
2019-03-23T04:37:36.026Z,99.90
2019-03-23T04:40:39.657Z,99.90
2019-03-23T04:43:26.199Z,99.90
2019-03-23T04:46:07.631Z,99.90
2019-03-23T04:48:50.713Z,99.90
2019-03-23T04:51:44.149Z,99.90
2019-03-23T04:54:30.600Z,99.90
2019-03-23T04:57:10.712Z,99.90
2019-03-23T04:59:48.359Z,99.90
2019-03-23T05:02:33.583Z,99.90
2019-03-23T05:05:30.147Z,99.90
2019-03-23T05:08:07.955Z,99.90
2019-03-23T05:10:49.737Z,99.90
2019-03-23T05:13:29.625Z,99.90
2019-03-23T05:16:07.317Z,99.90
2019-03-23T05:19:00.402Z,99.90
2019-03-23T05:21:52.371Z,99.90
2019-03-23T05:24:41.808Z,99.90
2019-03-23T05:27:21.728Z,99.90
2019-03-23T05:30:08.095Z,99.90
2019-03-23T05:32:47.907Z,99.90
2019-03-23T05:35:29.731Z,99.90
2019-03-23T05:37:58.711Z,99.90
2019-03-23T05:40:27.050Z,99.90
2019-03-23T05:42:55.788Z,99.90
2019-03-23T05:45:24.765Z,99.90
2019-03-23T05:47:53.030Z,99.90
2019-03-23T05:50:21.416Z,99.90
2019-03-23T05:52:49.689Z,99.90
2019-03-23T05:55:17.957Z,99.90
2019-03-23T05:57:46.229Z,99.90
2019-03-23T06:00:27.781Z,99.90
2019-03-23T06:03:09.376Z,99.90
2019-03-23T06:05:49.761Z,99.90
2019-03-23T06:08:27.449Z,99.90
2019-03-23T06:11:05.481Z,99.90
2019-03-23T06:13:46.726Z,99.90
2019-03-23T06:16:23.214Z,99.90
2019-03-23T06:19:03.133Z,99.90
2019-03-23T06:21:46.062Z,99.90
2019-03-23T06:24:22.776Z,99.90
2019-03-23T06:26:59.337Z,99.30
2019-03-23T06:29:39.258Z,98.10
2019-03-23T06:32:15.693Z,97.20
2019-03-23T06:34:56.051Z,96.10
2019-03-23T06:37:36.324Z,95.20
2019-03-23T06:40:15.383Z,94.30
2019-03-23T06:42:59.713Z,93.60
2019-03-23T06:45:30.884Z,93.20
2019-03-23T06:48:08.678Z,92.60
2019-03-23T06:50:44.045Z,92.10
2019-03-23T06:53:22.769Z,91.20
2019-03-23T06:56:01.170Z,90.30
2019-03-23T06:58:40.121Z,90.30
2019-03-23T07:01:17.900Z,88.40
2019-03-23T07:04:01.449Z,87.80
2019-03-23T07:06:43.468Z,86.90
2019-03-23T07:09:22.658Z,84.60
2019-03-23T07:12:06.282Z,83.80
2019-03-23T07:14:49.001Z,81.90
2019-03-23T07:17:33.273Z,79.70
2019-03-23T07:20:14.148Z,77.60
2019-03-23T07:22:55.858Z,76.50
2019-03-23T07:25:34.360Z,75.00
2019-03-23T07:28:35.975Z,75.80
2019-03-23T07:31:14.111Z,74.30
2019-03-23T07:33:53.686Z,73.80
2019-03-23T07:36:46.076Z,71.90
2019-03-23T07:39:30.344Z,70.30
2019-03-23T07:42:08.357Z,68.70
2019-03-23T07:45:06.526Z,66.40
2019-03-23T07:47:40.258Z,65.70
2019-03-23T07:50:08.742Z,62.90
2019-03-23T07:52:36.972Z,60.60
2019-03-23T07:55:14.775Z,59.90
2019-03-23T07:57:43.293Z,58.90
2019-03-23T08:00:16.333Z,57.10
2019-03-23T08:02:44.783Z,56.70
2019-03-23T08:05:13.018Z,55.60
2019-03-23T08:07:41.333Z,56.50
2019-03-23T08:10:12.142Z,56.50
2019-03-23T08:12:42.271Z,56.30
2019-03-23T08:15:10.739Z,56.10
2019-03-23T08:17:39.260Z,56.00
2019-03-23T08:20:07.643Z,55.50
2019-03-23T08:22:35.790Z,55.70
2019-03-23T08:25:04.796Z,55.20
2019-03-23T08:27:33.014Z,53.80
2019-03-23T08:30:01.447Z,53.10
2019-03-23T08:32:29.718Z,52.60
2019-03-23T08:34:58.130Z,51.30
2019-03-23T08:37:26.438Z,50.90
2019-03-23T08:39:54.681Z,50.00
2019-03-23T08:42:22.897Z,50.00
2019-03-23T08:44:51.179Z,49.70
2019-03-23T08:47:19.816Z,49.70
2019-03-23T08:49:48.036Z,49.60
2019-03-23T08:52:16.373Z,50.20
2019-03-23T08:54:46.602Z,50.60
2019-03-23T08:57:14.859Z,51.40
2019-03-23T08:59:45.770Z,50.60
2019-03-23T09:02:14.007Z,49.20
2019-03-23T09:04:42.269Z,48.90
2019-03-23T09:07:10.498Z,49.00
2019-03-23T09:09:38.722Z,48.20
2019-03-23T09:12:06.946Z,46.70
2019-03-23T09:14:35.163Z,45.90
2019-03-23T09:17:03.386Z,45.30
2019-03-23T09:19:31.613Z,45.30
2019-03-23T09:21:59.919Z,45.30
2019-03-23T09:24:28.125Z,45.50
2019-03-23T09:26:56.349Z,45.30
2019-03-23T09:29:24.589Z,44.60
2019-03-23T09:31:52.837Z,44.30
2019-03-23T09:34:21.130Z,44.00
2019-03-23T09:36:50.030Z,44.20
2019-03-23T09:39:18.269Z,44.30
2019-03-23T09:41:46.485Z,44.00
2019-03-23T09:44:14.723Z,43.40
2019-03-23T09:46:43.335Z,44.10
2019-03-23T09:49:11.545Z,43.70
2019-03-23T09:51:39.792Z,43.00
2019-03-23T09:54:08.041Z,42.20
2019-03-23T09:56:36.283Z,42.20
2019-03-23T09:59:04.500Z,41.70
2019-03-23T10:01:32.714Z,42.10
2019-03-23T10:04:00.956Z,41.90
2019-03-23T10:06:29.211Z,42.50
2019-03-23T10:08:59.258Z,42.90
2019-03-23T10:11:27.552Z,43.10
2019-03-23T10:13:55.850Z,43.60
2019-03-23T10:16:24.075Z,42.60
2019-03-23T10:18:52.316Z,41.60
2019-03-23T10:21:20.550Z,41.10
2019-03-23T10:23:48.856Z,40.80
2019-03-23T10:26:17.114Z,40.80
2019-03-23T10:28:45.444Z,43.00
2019-03-23T10:31:13.725Z,42.00
2019-03-23T10:33:41.970Z,41.10
2019-03-23T10:36:12.213Z,41.20
2019-03-23T10:38:40.307Z,41.50
2019-03-23T10:41:08.477Z,41.20
2019-03-23T10:43:38.943Z,41.50
2019-03-23T10:46:06.764Z,41.60
2019-03-23T10:48:44.776Z,41.30
2019-03-23T10:51:12.998Z,41.40
2019-03-23T10:53:41.215Z,41.60
2019-03-23T10:56:09.469Z,41.90
2019-03-23T10:58:37.757Z,41.40
2019-03-23T11:01:06.014Z,41.20
2019-03-23T11:03:34.220Z,41.20
2019-03-23T11:06:02.454Z,40.90
2019-03-23T11:08:30.790Z,39.80
2019-03-23T11:10:59.003Z,39.80
2019-03-23T11:13:27.257Z,40.10
2019-03-23T11:15:55.474Z,39.40
2019-03-23T11:18:23.682Z,40.20
2019-03-23T11:20:52.744Z,40.80
2019-03-23T11:23:21.905Z,41.00
2019-03-23T11:25:50.235Z,41.40
2019-03-23T11:28:18.485Z,41.70
2019-03-23T11:30:46.693Z,41.90
2019-03-23T11:33:14.934Z,42.90
2019-03-23T11:35:43.143Z,43.70
2019-03-23T11:38:11.541Z,44.40
2019-03-23T11:40:39.714Z,44.50
2019-03-23T11:43:08.037Z,44.30
2019-03-23T11:45:36.330Z,43.90
2019-03-23T11:48:04.690Z,43.00
2019-03-23T11:50:32.949Z,43.30
2019-03-23T11:53:01.169Z,43.50
2019-03-23T11:55:29.428Z,43.40
2019-03-23T11:57:57.986Z,43.80
2019-03-23T12:00:26.306Z,44.50
2019-03-23T12:02:54.545Z,44.40
2019-03-23T12:05:22.766Z,44.90
2019-03-23T12:07:51.025Z,43.70
2019-03-23T12:10:19.252Z,44.40
2019-03-23T12:12:47.533Z,44.60
2019-03-23T12:15:15.950Z,45.10
2019-03-23T12:17:44.199Z,45.40
2019-03-23T12:20:12.929Z,45.00
2019-03-23T12:22:41.224Z,43.80
2019-03-23T12:25:09.776Z,44.30
2019-03-23T12:27:38.043Z,44.40
2019-03-23T12:30:07.727Z,43.90
2019-03-23T12:32:36.029Z,43.10
2019-03-23T12:35:05.707Z,42.80
2019-03-23T12:37:34.101Z,42.60
2019-03-23T12:40:02.666Z,43.10
2019-03-23T12:42:45.444Z,43.00
2019-03-23T12:45:23.028Z,43.10
2019-03-23T12:47:51.319Z,42.40
2019-03-23T12:50:21.794Z,43.70
2019-03-23T12:52:50.017Z,44.20
2019-03-23T12:55:18.281Z,44.70
2019-03-23T12:57:51.233Z,43.60
2019-03-23T13:00:20.187Z,44.00
2019-03-23T13:02:49.252Z,44.20
2019-03-23T13:05:17.637Z,43.50
2019-03-23T13:07:47.438Z,44.20
2019-03-23T13:10:16.346Z,44.20
2019-03-23T13:12:45.345Z,43.90
2019-03-23T13:15:13.586Z,43.40
2019-03-23T13:17:41.813Z,43.90
2019-03-23T13:20:10.665Z,44.20
2019-03-23T13:22:41.837Z,44.30
2019-03-23T13:25:10.526Z,44.30
2019-03-23T13:27:39.589Z,44.60
2019-03-23T13:30:08.522Z,45.10
2019-03-23T13:32:36.725Z,45.10
2019-03-23T13:35:05.513Z,44.40
2019-03-23T13:37:33.910Z,44.60
2019-03-23T13:40:02.120Z,44.80
2019-03-23T13:42:31.001Z,45.20
2019-03-23T13:44:59.643Z,45.60
2019-03-23T13:47:28.667Z,45.80
2019-03-23T13:49:57.702Z,45.70
2019-03-23T13:52:26.358Z,46.30
2019-03-23T13:54:54.693Z,46.60
2019-03-23T13:57:22.914Z,46.60
2019-03-23T13:59:51.137Z,45.90
2019-03-23T14:02:19.712Z,46.80
2019-03-23T14:04:50.185Z,47.00
2019-03-23T14:07:18.138Z,47.00
2019-03-23T14:09:46.350Z,47.10
2019-03-23T14:12:14.660Z,47.00
2019-03-23T14:14:42.925Z,46.60
2019-03-23T14:17:11.130Z,46.60
2019-03-23T14:19:39.357Z,46.60
2019-03-23T14:22:07.621Z,46.10
2019-03-23T14:24:35.841Z,46.20
2019-03-23T14:27:04.087Z,46.40
2019-03-23T14:29:32.328Z,46.40
2019-03-23T14:32:00.584Z,46.80
2019-03-23T14:34:28.843Z,46.80
2019-03-23T14:36:57.069Z,46.10
2019-03-23T14:39:25.658Z,46.90
2019-03-23T14:41:53.875Z,47.00
2019-03-23T14:44:22.101Z,46.00
2019-03-23T14:46:50.324Z,45.90
2019-03-23T14:49:18.574Z,45.60
2019-03-23T14:51:47.325Z,44.90
2019-03-23T14:54:15.582Z,44.90
2019-03-23T14:56:43.843Z,45.10
2019-03-23T14:59:12.125Z,45.50
2019-03-23T15:01:49.602Z,45.40
2019-03-23T15:04:17.819Z,45.10
2019-03-23T15:06:46.019Z,44.50
2019-03-23T15:09:14.250Z,45.30
2019-03-23T15:11:42.477Z,45.00
2019-03-23T15:14:10.846Z,45.00
2019-03-23T15:16:39.116Z,44.10
2019-03-23T15:19:07.490Z,44.80
2019-03-23T15:21:35.739Z,45.00
2019-03-23T15:24:04.219Z,44.70
2019-03-23T15:26:32.474Z,44.40
2019-03-23T15:29:00.894Z,45.10
2019-03-23T15:31:29.154Z,45.40
2019-03-23T15:33:57.379Z,45.30
2019-03-23T15:36:28.142Z,45.00
2019-03-23T15:38:56.352Z,45.10
2019-03-23T15:41:24.854Z,45.00
2019-03-23T15:43:53.141Z,44.80
2019-03-23T15:46:21.385Z,44.60
2019-03-23T15:48:49.710Z,44.80
2019-03-23T15:51:17.940Z,46.20
2019-03-23T15:53:46.153Z,46.70
2019-03-23T15:56:14.645Z,46.50
2019-03-23T15:58:42.895Z,46.50
2019-03-23T16:01:11.208Z,47.10
2019-03-23T16:03:39.463Z,46.30
2019-03-23T16:06:07.690Z,46.50
2019-03-23T16:08:35.957Z,46.20
2019-03-23T16:11:04.227Z,47.00
2019-03-23T16:13:32.449Z,47.10
2019-03-23T16:16:00.708Z,46.80
2019-03-23T16:18:28.942Z,46.90
2019-03-23T16:20:57.262Z,46.80
2019-03-23T16:23:25.494Z,46.50
2019-03-23T16:25:53.725Z,46.70
2019-03-23T16:28:22.067Z,46.60
2019-03-23T16:30:52.454Z,46.90
2019-03-23T16:33:20.758Z,46.80
2019-03-23T16:35:48.959Z,47.00
2019-03-23T16:38:17.501Z,46.70
2019-03-23T16:40:45.680Z,47.00
2019-03-23T16:43:14.026Z,47.30
2019-03-23T16:45:42.270Z,47.40
2019-03-23T16:48:10.586Z,47.60
2019-03-23T16:50:38.854Z,47.90
2019-03-23T16:53:07.172Z,47.80
2019-03-23T16:55:35.556Z,47.90
2019-03-23T16:58:03.782Z,48.30
2019-03-23T17:00:36.806Z,48.50
2019-03-23T17:03:06.118Z,48.50
2019-03-23T17:05:36.374Z,49.00
2019-03-23T17:08:05.238Z,49.20
2019-03-23T17:10:34.081Z,49.30
2019-03-23T17:13:02.293Z,49.50
2019-03-23T17:15:30.557Z,49.60
2019-03-23T17:17:58.908Z,49.70
2019-03-23T17:20:27.127Z,49.80
2019-03-23T17:22:55.363Z,50.00
2019-03-23T17:25:23.579Z,50.20
2019-03-23T17:27:51.814Z,50.10
2019-03-23T17:30:20.105Z,50.30
2019-03-23T17:32:48.354Z,50.30
2019-03-23T17:35:16.601Z,50.60
2019-03-23T17:37:46.583Z,50.60
2019-03-23T17:40:14.825Z,50.70
2019-03-23T17:42:43.034Z,50.90
2019-03-23T17:45:14.674Z,51.10
2019-03-23T17:47:43.028Z,51.40
2019-03-23T17:50:11.258Z,51.80
2019-03-23T17:52:39.859Z,52.00
2019-03-23T17:55:09.586Z,52.30
2019-03-23T17:57:39.610Z,52.60
2019-03-23T18:00:08.751Z,52.90
2019-03-23T18:02:36.990Z,53.20
2019-03-23T18:05:05.465Z,53.50
2019-03-23T18:07:33.677Z,53.70
2019-03-23T18:10:01.889Z,53.90
2019-03-23T18:12:30.122Z,54.20
2019-03-23T18:14:58.982Z,54.40
2019-03-23T18:17:27.681Z,54.80
2019-03-23T18:19:56.959Z,55.00
2019-03-23T18:22:25.641Z,55.20
2019-03-23T18:24:54.410Z,55.60
2019-03-23T18:27:23.624Z,55.90
2019-03-23T18:29:52.646Z,56.10
2019-03-23T18:32:21.926Z,56.50
2019-03-23T18:34:50.582Z,56.80
2019-03-23T18:37:19.306Z,57.30
2019-03-23T18:39:48.603Z,57.80
2019-03-23T18:42:16.973Z,58.40
2019-03-23T18:44:45.217Z,58.80
2019-03-23T18:47:13.475Z,59.40
2019-03-23T18:49:42.740Z,59.80
2019-03-23T18:52:11.381Z,60.40
2019-03-23T18:54:40.442Z,61.00
2019-03-23T18:57:09.497Z,61.30
2019-03-23T18:59:38.508Z,62.10
2019-03-23T19:02:10.163Z,62.80
2019-03-23T19:04:39.266Z,63.50
2019-03-23T19:07:08.165Z,64.30
2019-03-23T19:09:41.363Z,65.10
2019-03-23T19:12:10.341Z,66.00
2019-03-23T19:14:40.402Z,67.00
2019-03-23T19:17:09.635Z,67.50
2019-03-23T19:19:38.545Z,68.10
2019-03-23T19:22:06.960Z,69.00
2019-03-23T19:24:35.702Z,69.70
2019-03-23T19:27:04.331Z,70.20
2019-03-23T19:29:32.713Z,70.50
2019-03-23T19:32:01.984Z,73.50
2019-03-23T19:34:30.695Z,76.50
2019-03-23T19:36:59.571Z,79.60
2019-03-23T19:39:28.529Z,81.00
2019-03-23T19:41:57.522Z,82.40
2019-03-23T19:44:26.737Z,82.10
2019-03-23T19:46:55.931Z,82.60
2019-03-23T19:49:24.734Z,83.80
2019-03-23T19:51:54.008Z,84.00
2019-03-23T19:54:22.996Z,84.00
2019-03-23T19:56:51.810Z,84.40
2019-03-23T19:59:20.666Z,85.40
2019-03-23T20:01:49.787Z,85.80
2019-03-23T20:04:18.040Z,86.00
2019-03-23T20:06:46.225Z,86.70
2019-03-23T20:09:14.447Z,86.80
2019-03-23T20:11:42.654Z,86.90
2019-03-23T20:14:11.038Z,87.70
2019-03-23T20:16:40.041Z,87.80
2019-03-23T20:19:09.029Z,88.80
2019-03-23T20:21:37.270Z,89.00
2019-03-23T20:24:06.206Z,89.40
2019-03-23T20:26:35.218Z,90.00
2019-03-23T20:29:04.455Z,90.20
2019-03-23T20:31:32.679Z,90.20
2019-03-23T20:34:01.825Z,90.30
2019-03-23T20:36:30.867Z,90.30
2019-03-23T20:38:59.882Z,90.30
2019-03-23T20:41:30.222Z,90.50
2019-03-23T20:44:08.887Z,91.00
2019-03-23T20:46:30.128Z,91.30
2019-03-23T20:48:58.558Z,91.00
2019-03-23T20:51:27.896Z,90.40
2019-03-23T20:53:57.197Z,89.60
2019-03-23T20:56:25.831Z,89.30
2019-03-23T20:58:54.685Z,89.20
2019-03-23T21:01:23.774Z,89.00
2019-03-23T21:03:52.882Z,88.80
2019-03-23T21:06:21.862Z,89.10
2019-03-23T21:08:51.153Z,90.00
2019-03-23T21:11:19.941Z,89.40
2019-03-23T21:13:48.528Z,90.10
2019-03-23T21:16:17.534Z,90.10
2019-03-23T21:18:46.612Z,89.90
2019-03-23T21:21:15.398Z,89.90
2019-03-23T21:23:43.945Z,89.80
2019-03-23T21:26:12.806Z,89.70
2019-03-23T21:28:41.799Z,89.90
2019-03-23T21:31:10.763Z,90.00
2019-03-23T21:33:39.750Z,90.20
2019-03-23T21:36:08.239Z,90.30
2019-03-23T21:38:37.036Z,90.40
2019-03-23T21:41:06.038Z,90.50
2019-03-23T21:43:35.113Z,90.70
2019-03-23T21:46:04.103Z,91.00
2019-03-23T21:48:32.464Z,91.00
2019-03-23T21:51:01.282Z,91.20
2019-03-23T21:53:30.311Z,91.20
2019-03-23T21:55:59.255Z,91.30
2019-03-23T21:58:28.248Z,91.40
2019-03-23T22:00:56.654Z,91.50
2019-03-23T22:03:25.321Z,91.60
2019-03-23T22:05:54.383Z,91.70
2019-03-23T22:08:23.401Z,91.70
2019-03-23T22:10:53.630Z,91.80
2019-03-23T22:13:22.635Z,91.90
2019-03-23T22:15:51.306Z,92.00
2019-03-23T22:18:20.325Z,92.00
2019-03-23T22:20:49.486Z,92.20
2019-03-23T22:23:18.515Z,92.10
2019-03-23T22:25:47.302Z,92.30
2019-03-23T22:28:16.894Z,92.40
2019-03-23T22:30:46.221Z,92.40
2019-03-23T22:33:14.850Z,92.40
2019-03-23T22:35:43.546Z,92.50
2019-03-23T22:38:11.907Z,92.60
2019-03-23T22:40:41.035Z,92.60
2019-03-23T22:43:10.072Z,92.80
2019-03-23T22:45:39.116Z,92.90
2019-03-23T22:48:08.314Z,93.10
2019-03-23T22:50:36.602Z,93.10
2019-03-23T22:53:05.477Z,93.20
2019-03-23T22:55:34.705Z,93.20
2019-03-23T22:58:03.768Z,93.20
2019-03-23T23:00:42.699Z,93.30
2019-03-23T23:03:12.510Z,93.20
2019-03-23T23:05:41.098Z,93.30
2019-03-23T23:08:09.997Z,93.30
2019-03-23T23:10:38.565Z,93.40
2019-03-23T23:13:07.420Z,93.40
2019-03-23T23:15:36.552Z,93.50
2019-03-23T23:18:05.552Z,93.50
2019-03-23T23:20:34.537Z,93.50
2019-03-23T23:23:03.230Z,93.60
2019-03-23T23:25:31.594Z,93.60
2019-03-23T23:28:00.901Z,93.60
2019-03-23T23:30:30.170Z,93.70
2019-03-23T23:32:59.222Z,93.80
2019-03-23T23:35:27.857Z,93.90
2019-03-23T23:37:56.715Z,93.90
2019-03-23T23:40:25.969Z,94.00
2019-03-23T23:42:54.313Z,94.10
2019-03-23T23:45:23.150Z,94.10
2019-03-23T23:47:52.036Z,94.40
2019-03-23T23:50:21.051Z,95.20
2019-03-23T23:52:50.634Z,95.30
2019-03-23T23:55:19.423Z,94.90
2019-03-23T23:57:47.787Z,94.80
